sensor_id;sensor_type;location;lat;lon;timestamp;pressure;altitude;pressure_sealevel;temperature;humidity
57056;BME280;42945;51.718;5.324;2022-08-25T00:02:02;101392.91;;;20.15;90.49
57056;BME280;42945;51.718;5.324;2022-08-25T00:07:51;101405.59;;;19.94;89.80
57056;BME280;42945;51.718;5.324;2022-08-25T00:13:42;101232.72;;;19.40;90.15
57056;BME280;42945;51.718;5.324;2022-08-25T00:19:34;101393.53;;;19.88;91.52
57056;BME280;42945;51.718;5.324;2022-08-25T00:29:25;101290.97;;;18.99;90.96
57056;BME280;42945;51.718;5.324;2022-08-25T00:35:14;101322.16;;;18.90;92.68
57056;BME280;42945;51.718;5.324;2022-08-25T00:41:02;101300.09;;;18.86;94.16
57056;BME280;42945;51.718;5.324;2022-08-25T00:46:56;101402.28;;;19.59;95.54
57056;BME280;42945;51.718;5.324;2022-08-25T00:52:50;101372.69;;;19.38;95.33
57056;BME280;42945;51.718;5.324;2022-08-25T00:58:41;101418.78;;;19.24;96.32
57056;BME280;42945;51.718;5.324;2022-08-25T01:04:31;101483.84;;;20.02;95.29
57056;BME280;42945;51.718;5.324;2022-08-25T01:10:21;101501.78;;;19.92;96.37
57056;BME280;42945;51.718;5.324;2022-08-25T01:16:11;101409.06;;;19.12;95.02
57056;BME280;42945;51.718;5.324;2022-08-25T01:22:00;101246.03;;;18.47;97.92
57056;BME280;42945;51.718;5.324;2022-08-25T01:31:54;101436.28;;;19.18;95.48
57056;BME280;42945;51.718;5.324;2022-08-25T01:37:44;101333.13;;;18.98;96.49
57056;BME280;42945;51.718;5.324;2022-08-25T01:43:37;101256.84;;;18.36;94.51
57056;BME280;42945;51.718;5.324;2022-08-25T01:49:25;101436.97;;;18.99;96.38
57056;BME280;42945;51.718;5.324;2022-08-25T01:55:13;101382.38;;;18.55;96.68
57056;BME280;42945;51.718;5.324;2022-08-25T02:01:04;101345.38;;;18.59;95.36
57056;BME280;42945;51.718;5.324;2022-08-25T02:06:52;101406.28;;;18.81;93.62
57056;BME280;42945;51.718;5.324;2022-08-25T02:12:41;101415.50;;;18.88;91.94
57056;BME280;42945;51.718;5.324;2022-08-25T02:18:29;101385.25;;;18.75;91.62
57056;BME280;42945;51.718;5.324;2022-08-25T02:24:18;101405.75;;;18.87;90.20
57056;BME280;42945;51.718;5.324;2022-08-25T02:34:09;101390.34;;;18.78;87.98
57056;BME280;42945;51.718;5.324;2022-08-25T02:39:56;101267.78;;;18.12;86.68
57056;BME280;42945;51.718;5.324;2022-08-25T02:45:45;101280.16;;;18.03;87.10
57056;BME280;42945;51.718;5.324;2022-08-25T02:51:34;101217.47;;;17.93;84.79
57056;BME280;42945;51.718;5.324;2022-08-25T02:57:23;101355.59;;;18.65;84.45
57056;BME280;42945;51.718;5.324;2022-08-25T03:03:12;101378.19;;;18.62;83.28
57056;BME280;42945;51.718;5.324;2022-08-25T03:09:00;101248.56;;;17.96;83.47
57056;BME280;42945;51.718;5.324;2022-08-25T03:14:49;101351.97;;;18.55;83.30
57056;BME280;42945;51.718;5.324;2022-08-25T03:20:37;101352.41;;;18.39;83.08
57056;BME280;42945;51.718;5.324;2022-08-25T03:26:25;101409.75;;;18.49;83.08
57056;BME280;42945;51.718;5.324;2022-08-25T03:36:33;101393.34;;;18.96;82.44
57056;BME280;42945;51.718;5.324;2022-08-25T03:42:21;101209.44;;;18.14;82.36
57056;BME280;42945;51.718;5.324;2022-08-25T03:48:09;101321.81;;;18.30;82.06
57056;BME280;42945;51.718;5.324;2022-08-25T03:53:58;101370.59;;;18.35;81.86
57056;BME280;42945;51.718;5.324;2022-08-25T03:59:46;101305.63;;;18.09;82.38
57056;BME280;42945;51.718;5.324;2022-08-25T04:05:35;101195.97;;;17.38;82.24
57056;BME280;42945;51.718;5.324;2022-08-25T04:11:25;101056.31;;;16.52;81.08
57056;BME280;42945;51.718;5.324;2022-08-25T04:17:16;101203.41;;;17.23;81.58
57056;BME280;42945;51.718;5.324;2022-08-25T04:23:05;101311.28;;;17.72;80.62
57056;BME280;42945;51.718;5.324;2022-08-25T04:28:53;100558.13;;;13.20;79.56
57056;BME280;42945;51.718;5.324;2022-08-25T04:38:44;101246.34;;;18.01;77.96
57056;BME280;42945;51.718;5.324;2022-08-25T04:44:32;101249.31;;;17.86;78.45
57056;BME280;42945;51.718;5.324;2022-08-25T04:50:21;101309.78;;;18.02;77.05
57056;BME280;42945;51.718;5.324;2022-08-25T04:56:12;101168.00;;;17.20;76.21
57056;BME280;42945;51.718;5.324;2022-08-25T05:02:00;101223.72;;;17.71;76.38
57056;BME280;42945;51.718;5.324;2022-08-25T05:07:48;101295.63;;;18.11;75.20
57056;BME280;42945;51.718;5.324;2022-08-25T05:13:36;101280.69;;;18.18;76.29
57056;BME280;42945;51.718;5.324;2022-08-25T05:19:24;101318.00;;;18.33;75.84
57056;BME280;42945;51.718;5.324;2022-08-25T05:25:14;101284.66;;;18.67;74.65
57056;BME280;42945;51.718;5.324;2022-08-25T05:31:03;101210.69;;;18.10;73.21
57056;BME280;42945;51.718;5.324;2022-08-25T05:41:02;101334.38;;;18.94;70.98
57056;BME280;42945;51.718;5.324;2022-08-25T05:46:53;101297.28;;;19.19;71.04
57056;BME280;42945;51.718;5.324;2022-08-25T05:52:43;101250.69;;;18.66;69.33
57056;BME280;42945;51.718;5.324;2022-08-25T05:58:34;101107.97;;;18.08;69.53
57056;BME280;42945;51.718;5.324;2022-08-25T06:04:23;101353.53;;;19.53;68.90
57056;BME280;42945;51.718;5.324;2022-08-25T06:10:12;101385.53;;;19.77;66.63
57056;BME280;42945;51.718;5.324;2022-08-25T06:15:59;101366.31;;;19.81;67.07
57056;BME280;42945;51.718;5.324;2022-08-25T06:21:51;101108.84;;;18.60;66.84
57056;BME280;42945;51.718;5.324;2022-08-25T06:27:40;101327.59;;;20.33;64.97
57056;BME280;42945;51.718;5.324;2022-08-25T06:33:29;101320.06;;;20.26;65.07
57056;BME280;42945;51.718;5.324;2022-08-25T06:43:05;101361.69;;;20.63;63.59
57056;BME280;42945;51.718;5.324;2022-08-25T06:48:56;101466.53;;;21.54;63.01
57056;BME280;42945;51.718;5.324;2022-08-25T06:54:44;101399.19;;;21.62;62.25
57056;BME280;42945;51.718;5.324;2022-08-25T07:00:33;92804.56;;;-31.30;59.54
57056;BME280;42945;51.718;5.324;2022-08-25T07:06:23;101228.94;;;21.08;60.71
57056;BME280;42945;51.718;5.324;2022-08-25T07:12:11;101346.31;;;21.97;60.20
57056;BME280;42945;51.718;5.324;2022-08-25T07:17:59;101251.34;;;21.56;59.19
57056;BME280;42945;51.718;5.324;2022-08-25T07:23:47;101339.25;;;22.41;6.50
57056;BME280;42945;51.718;5.324;2022-08-25T07:29:35;101108.63;;;21.25;57.48
57056;BME280;42945;51.718;5.324;2022-08-25T07:35:25;101316.34;;;22.90;57.32
57056;BME280;42945;51.718;5.324;2022-08-25T07:45:08;101365.47;;;23.21;56.26
57056;BME280;42945;51.718;5.324;2022-08-25T07:50:57;101318.63;;;23.55;55.03
57056;BME280;42945;51.718;5.324;2022-08-25T07:56:45;101309.84;;;23.61;54.46
57056;BME280;42945;51.718;5.324;2022-08-25T08:02:32;101340.69;;;24.03;54.94
57056;BME280;42945;51.718;5.324;2022-08-25T08:08:21;101342.22;;;24.13;100.00
57056;BME280;42945;51.718;5.324;2022-08-25T08:14:10;101287.56;;;24.43;53.34
57056;BME280;42945;51.718;5.324;2022-08-25T08:20:00;101298.28;;;24.93;52.52
57056;BME280;42945;51.718;5.324;2022-08-25T08:25:48;101339.28;;;25.07;52.87
57056;BME280;42945;51.718;5.324;2022-08-25T08:31:36;101196.56;;;24.40;53.03
57056;BME280;42945;51.718;5.324;2022-08-25T08:37:24;101375.22;;;25.50;52.43
57056;BME280;42945;51.718;5.324;2022-08-25T08:59:12;101330.06;;;26.28;49.29
57056;BME280;42945;51.718;5.324;2022-08-25T09:05:11;101284.72;;;26.43;49.05
57056;BME280;42945;51.718;5.324;2022-08-25T09:11:02;101270.78;;;26.84;47.87
57056;BME280;42945;51.718;5.324;2022-08-25T09:17:02;101216.09;;;26.41;46.98
57056;BME280;42945;51.718;5.324;2022-08-25T09:29:06;101284.53;;;27.65;44.81
57056;BME280;42945;51.718;5.324;2022-08-25T09:34:57;101449.69;;;29.14;43.00
57056;BME280;42945;51.718;5.324;2022-08-25T09:40:49;101150.34;;;27.42;42.87
57056;BME280;42945;51.718;5.324;2022-08-25T09:46:38;101308.34;;;28.66;42.93
57056;BME280;42945;51.718;5.324;2022-08-25T09:52:38;101286.88;;;28.63;41.61
57056;BME280;42945;51.718;5.324;2022-08-25T09:58:27;101280.91;;;29.02;41.11
57056;BME280;42945;51.718;5.324;2022-08-25T10:04:36;101286.16;;;29.32;39.33
57056;BME280;42945;51.718;5.324;2022-08-25T10:16:26;101223.66;;;29.71;39.37
57056;BME280;42945;51.718;5.324;2022-08-25T10:22:24;101216.63;;;30.10;40.56
57056;BME280;42945;51.718;5.324;2022-08-25T10:28:50;101133.47;;;29.71;37.23
57056;BME280;42945;51.718;5.324;2022-08-25T10:34:40;101200.22;;;30.30;37.77
57056;BME280;42945;51.718;5.324;2022-08-25T10:40:47;101210.31;;;30.16;35.85
57056;BME280;42945;51.718;5.324;2022-08-25T10:56:40;101209.47;;;30.09;35.67
57056;BME280;42945;51.718;5.324;2022-08-25T11:08:59;101185.25;;;29.92;35.88
57056;BME280;42945;51.718;5.324;2022-08-25T11:14:57;101188.34;;;29.69;36.81
57056;BME280;42945;51.718;5.324;2022-08-25T11:21:09;101059.56;;;29.17;36.59
57056;BME280;42945;51.718;5.324;2022-08-25T11:26:59;101208.03;;;30.53;37.29
57056;BME280;42945;51.718;5.324;2022-08-25T11:32:50;101149.44;;;30.87;33.68
57056;BME280;42945;51.718;5.324;2022-08-25T11:51:04;101137.63;;;31.38;35.59
57056;BME280;42945;51.718;5.324;2022-08-25T11:56:57;101151.69;;;31.62;35.12
57056;BME280;42945;51.718;5.324;2022-08-25T12:02:46;101159.53;;;31.84;32.96
57056;BME280;42945;51.718;5.324;2022-08-25T12:14:50;101149.31;;;31.27;34.15
57056;BME280;42945;51.718;5.324;2022-08-25T12:44:30;101125.66;;;32.28;31.71
57056;BME280;42945;51.718;5.324;2022-08-25T12:50:41;101117.50;;;31.90;32.14
57056;BME280;42945;51.718;5.324;2022-08-25T12:56:40;100879.19;;;31.13;30.31
57056;BME280;42945;51.718;5.324;2022-08-25T13:02:54;101078.03;;;32.16;0.00
57056;BME280;42945;51.718;5.324;2022-08-25T13:15:04;101238.00;;;33.54;30.17
57056;BME280;42945;51.718;5.324;2022-08-25T13:21:00;101127.69;;;32.33;30.19
57056;BME280;42945;51.718;5.324;2022-08-25T13:26:54;100733.53;;;32.20;30.15
57056;BME280;42945;51.718;5.324;2022-08-25T13:32:42;101321.41;;;33.66;30.66
57056;BME280;42945;51.718;5.324;2022-08-25T13:38:30;101156.50;;;33.41;29.90
57056;BME280;42945;51.718;5.324;2022-08-25T13:44:22;101077.78;;;32.98;29.18
57056;BME280;42945;51.718;5.324;2022-08-25T13:56:32;101055.50;;;32.88;30.30
57056;BME280;42945;51.718;5.324;2022-08-25T14:08:34;101138.91;;;33.42;30.11
57056;BME280;42945;51.718;5.324;2022-08-25T14:26:08;101060.38;;;32.49;29.64
57056;BME280;42945;51.718;5.324;2022-08-25T14:31:58;101147.59;;;33.58;30.41
57056;BME280;42945;51.718;5.324;2022-08-25T14:37:47;101040.88;;;33.90;29.92
57056;BME280;42945;51.718;5.324;2022-08-25T14:43:35;101039.47;;;33.76;29.24
57056;BME280;42945;51.718;5.324;2022-08-25T14:53:12;100914.88;;;32.67;28.96
57056;BME280;42945;51.718;5.324;2022-08-25T14:58:59;100995.13;;;33.42;29.39
57056;BME280;42945;51.718;5.324;2022-08-25T15:04:57;101028.63;;;32.90;29.43
57056;BME280;42945;51.718;5.324;2022-08-25T15:10:46;101002.59;;;32.81;29.10
57056;BME280;42945;51.718;5.324;2022-08-25T15:16:45;101024.91;;;33.45;28.44
57056;BME280;42945;51.718;5.324;2022-08-25T15:22:34;100973.38;;;32.68;29.59
57056;BME280;42945;51.718;5.324;2022-08-25T15:28:23;101011.84;;;33.40;31.78
57056;BME280;42945;51.718;5.324;2022-08-25T15:34:11;100936.44;;;33.48;30.20
57056;BME280;42945;51.718;5.324;2022-08-25T15:40:01;100804.69;;;32.87;30.80
57056;BME280;42945;51.718;5.324;2022-08-25T15:45:50;101004.72;;;34.10;30.29
57056;BME280;42945;51.718;5.324;2022-08-25T15:55:37;101037.34;;;34.65;30.55
57056;BME280;42945;51.718;5.324;2022-08-25T16:01:27;100871.13;;;33.90;29.05
57056;BME280;42945;51.718;5.324;2022-08-25T16:07:16;100674.78;;;34.59;29.20
57056;BME280;42945;51.718;5.324;2022-08-25T16:13:06;101013.81;;;34.46;29.46
57056;BME280;42945;51.718;5.324;2022-08-25T16:18:54;100970.41;;;34.65;30.42
57056;BME280;42945;51.718;5.324;2022-08-25T16:24:43;101105.91;;;35.60;30.12
57056;BME280;42945;51.718;5.324;2022-08-25T16:30:46;101075.94;;;35.06;31.00
57056;BME280;42945;51.718;5.324;2022-08-25T16:36:35;100871.28;;;33.25;29.13
57056;BME280;42945;51.718;5.324;2022-08-25T16:42:23;101020.31;;;33.27;30.55
57056;BME280;42945;51.718;5.324;2022-08-25T16:48:11;100969.50;;;33.71;31.02
57056;BME280;42945;51.718;5.324;2022-08-25T16:57:50;100843.84;;;31.92;33.86
57056;BME280;42945;51.718;5.324;2022-08-25T17:03:41;100967.31;;;32.29;35.38
57056;BME280;42945;51.718;5.324;2022-08-25T17:09:30;101041.94;;;31.69;35.67
57056;BME280;42945;51.718;5.324;2022-08-25T17:15:18;100966.06;;;31.37;34.48
57056;BME280;42945;51.718;5.324;2022-08-25T17:21:12;100993.38;;;31.94;33.90
57056;BME280;42945;51.718;5.324;2022-08-25T17:27:00;100931.97;;;31.77;33.91
57056;BME280;42945;51.718;5.324;2022-08-25T17:32:48;100894.56;;;31.64;33.06
57056;BME280;42945;51.718;5.324;2022-08-25T17:38:38;100961.84;;;31.60;35.05
57056;BME280;42945;51.718;5.324;2022-08-25T17:44:27;100872.81;;;29.18;39.49
57056;BME280;42945;51.718;5.324;2022-08-25T17:50:18;100872.13;;;27.45;52.33
57056;BME280;42945;51.718;5.324;2022-08-25T18:00:04;100786.56;;;25.97;58.50
57056;BME280;42945;51.718;5.324;2022-08-25T18:05:57;100900.41;;;26.21;59.14
57056;BME280;42945;51.718;5.324;2022-08-25T18:11:46;101037.25;;;26.73;58.53
57056;BME280;42945;51.718;5.324;2022-08-25T18:17:36;100961.91;;;25.69;57.96
57056;BME280;42945;51.718;5.324;2022-08-25T18:23:26;100959.75;;;25.27;58.64
57056;BME280;42945;51.718;5.324;2022-08-25T18:29:16;101029.53;;;25.41;62.01
57056;BME280;42945;51.718;5.324;2022-08-25T18:35:04;100847.75;;;23.45;65.62
57056;BME280;42945;51.718;5.324;2022-08-25T18:40:57;101047.47;;;24.40;69.25
57056;BME280;42945;51.718;5.324;2022-08-25T18:46:46;100993.03;;;23.94;72.90
57056;BME280;42945;51.718;5.324;2022-08-25T18:52:36;100988.22;;;22.89;73.61
57056;BME280;42945;51.718;5.324;2022-08-25T19:02:24;100913.13;;;22.58;75.84
57056;BME280;42945;51.718;5.324;2022-08-25T19:08:14;101068.72;;;22.95;100.00
57056;BME280;42945;51.718;5.324;2022-08-25T19:14:03;101114.72;;;22.95;78.29
57056;BME280;42945;51.718;5.324;2022-08-25T19:19:51;101333.22;;;24.05;78.96
57056;BME280;42945;51.718;5.324;2022-08-25T19:25:40;101127.66;;;22.49;80.36
57056;BME280;42945;51.718;5.324;2022-08-25T19:31:30;101091.16;;;22.01;81.92
57056;BME280;42945;51.718;5.324;2022-08-25T19:37:25;101209.38;;;22.43;82.29
57056;BME280;42945;51.718;5.324;2022-08-25T19:43:19;101149.38;;;21.50;84.42
57056;BME280;42945;51.718;5.324;2022-08-25T19:49:15;101068.59;;;20.75;84.53
57056;BME280;42945;51.718;5.324;2022-08-25T19:55:09;101177.78;;;21.16;88.62
57056;BME280;42945;51.718;5.324;2022-08-25T20:04:58;101261.06;;;20.82;90.63
57056;BME280;42945;51.718;5.324;2022-08-25T20:10:47;101167.19;;;20.68;91.92
57056;BME280;42945;51.718;5.324;2022-08-25T20:16:39;101170.03;;;20.56;92.47
57056;BME280;42945;51.718;5.324;2022-08-25T20:22:32;101194.41;;;20.55;93.73
57056;BME280;42945;51.718;5.324;2022-08-25T20:28:21;101190.31;;;20.51;93.67
57056;BME280;42945;51.718;5.324;2022-08-25T20:34:14;101133.50;;;20.34;95.18
57056;BME280;42945;51.718;5.324;2022-08-25T20:40:03;101150.41;;;19.88;97.28
57056;BME280;42945;51.718;5.324;2022-08-25T20:45:59;101091.16;;;19.29;98.16
57056;BME280;42945;51.718;5.324;2022-08-25T20:51:49;101068.19;;;19.15;99.46
57056;BME280;42945;51.718;5.324;2022-08-25T20:57:38;101254.84;;;20.33;99.16
57056;BME280;42945;51.718;5.324;2022-08-25T21:07:28;101212.53;;;19.65;99.73
57056;BME280;42945;51.718;5.324;2022-08-25T21:13:16;101224.06;;;19.36;100.00
57056;BME280;42945;51.718;5.324;2022-08-25T21:19:09;102093.69;;;24.53;100.00
57056;BME280;42945;51.718;5.324;2022-08-25T21:24:58;101130.09;;;18.63;100.00
57056;BME280;42945;51.718;5.324;2022-08-25T21:30:46;101262.00;;;19.33;100.00
57056;BME280;42945;51.718;5.324;2022-08-25T21:36:35;101143.00;;;18.48;100.00
57056;BME280;42945;51.718;5.324;2022-08-25T21:42:23;101118.78;;;18.39;100.00
57056;BME280;42945;51.718;5.324;2022-08-25T21:48:12;101154.59;;;18.28;100.00
57056;BME280;42945;51.718;5.324;2022-08-25T21:54:06;101169.72;;;18.50;100.00
57056;BME280;42945;51.718;5.324;2022-08-25T21:59:58;101239.78;;;19.00;100.00
57056;BME280;42945;51.718;5.324;2022-08-25T22:09:49;101212.69;;;18.71;100.00
57056;BME280;42945;51.718;5.324;2022-08-25T22:15:37;101188.53;;;18.92;100.00
57056;BME280;42945;51.718;5.324;2022-08-25T22:21:26;101267.19;;;18.94;100.00
57056;BME280;42945;51.718;5.324;2022-08-25T22:27:15;101254.00;;;18.91;100.00
57056;BME280;42945;51.718;5.324;2022-08-25T22:33:05;101244.63;;;18.85;100.00
57056;BME280;42945;51.718;5.324;2022-08-25T22:38:53;101164.88;;;18.23;100.00
57056;BME280;42945;51.718;5.324;2022-08-25T22:44:42;101290.25;;;18.97;100.00
57056;BME280;42945;51.718;5.324;2022-08-25T22:50:33;101377.16;;;19.49;100.00
57056;BME280;42945;51.718;5.324;2022-08-25T22:56:34;101308.59;;;18.92;100.00
57056;BME280;42945;51.718;5.324;2022-08-25T23:02:24;101278.97;;;18.82;100.00
57056;BME280;42945;51.718;5.324;2022-08-25T23:12:15;101210.56;;;18.44;100.00
57056;BME280;42945;51.718;5.324;2022-08-25T23:18:02;101177.25;;;18.14;100.00
57056;BME280;42945;51.718;5.324;2022-08-25T23:23:50;101264.13;;;18.66;100.00
57056;BME280;42945;51.718;5.324;2022-08-25T23:29:41;101205.50;;;17.97;100.00
57056;BME280;42945;51.718;5.324;2022-08-25T23:35:31;101168.44;;;17.91;100.00
57056;BME280;42945;51.718;5.324;2022-08-25T23:41:21;101184.16;;;17.96;100.00
57056;BME280;42945;51.718;5.324;2022-08-25T23:47:10;101069.66;;;17.31;100.00
57056;BME280;42945;51.718;5.324;2022-08-25T23:52:58;101280.38;;;18.65;100.00
57056;BME280;42945;51.718;5.324;2022-08-25T23:58:46;101283.91;;;18.44;100.00
